Time;durP1;ratioP1;P1;durP2;ratioP2;P2;SDS_P1;SDS_P2;PMS_P1;PMS_P2;Temp;Humidity;BMP_temperature;BMP_pressure;BME280_temperature;BME280_humidity;BME280_pressure;Samples;Min_cycle;Max_cycle;Signal;HPM_P1;HPM_P2
2021/09/23 00:00:04;;;;;;;3.03;1.88;;;22.00;54.70;;;;;;5132350;28;20050;-58
2021/09/23 00:05:30;;;;;;;2.13;1.30;;;22.00;54.70;;;;;;5131760;28;20031;-58
2021/09/23 00:07:57;;;;;;;4.97;1.85;;;22.10;54.70;;;;;;5131269;28;20039;-58
2021/09/23 00:10:35;;;;;;;2.40;1.75;;;22.00;54.60;;;;;;5131912;28;20039;-58
2021/09/23 00:13:02;;;;;;;3.95;1.70;;;22.00;54.60;;;;;;5130427;28;20035;-58
2021/09/23 00:15:29;;;;;;;2.72;1.83;;;22.10;54.60;;;;;;5132162;27;20046;-58
2021/09/23 00:17:59;;;;;;;2.60;1.60;;;22.00;54.60;;;;;;5134972;27;20027;-58
2021/09/23 00:20:29;;;;;;;1.90;1.55;;;22.00;54.60;;;;;;5135899;27;20034;-58
2021/09/23 00:22:55;;;;;;;2.50;1.40;;;22.00;54.60;;;;;;5134325;27;20121;-58
2021/09/23 00:25:20;;;;;;;2.42;1.50;;;22.00;54.60;;;;;;5135490;27;20428;-58
2021/09/23 00:27:46;;;;;;;3.05;1.50;;;22.00;54.50;;;;;;5134805;27;20079;-58
2021/09/23 00:30:13;;;;;;;2.03;1.33;;;22.00;54.60;;;;;;5135160;27;20080;-58
2021/09/23 00:32:39;;;;;;;2.90;1.88;;;22.00;54.60;;;;;;5134506;27;20475;-57
2021/09/23 00:35:06;;;;;;;2.22;1.60;;;22.00;54.60;;;;;;5134739;27;20027;-58
2021/09/23 00:37:32;;;;;;;2.90;1.92;;;22.00;54.60;;;;;;5134967;27;20015;-57
2021/09/23 00:39:58;;;;;;;2.08;1.48;;;22.00;54.60;;;;;;5134926;27;20020;-58
2021/09/23 00:42:24;;;;;;;3.05;1.70;;;22.00;54.60;;;;;;5135067;27;20039;-58
2021/09/23 00:44:54;;;;;;;1.80;1.40;;;22.00;54.60;;;;;;5134005;27;20041;-58
2021/09/23 00:47:20;;;;;;;1.98;1.50;;;22.00;54.60;;;;;;5134998;27;20036;-58
2021/09/23 00:49:47;;;;;;;2.13;1.60;;;22.00;54.50;;;;;;5134230;27;20034;-58
2021/09/23 00:52:13;;;;;;;2.65;1.63;;;22.00;54.50;;;;;;5134782;27;20110;-58
2021/09/23 00:54:38;;;;;;;2.65;1.20;;;22.00;54.50;;;;;;5134330;27;20523;-57
2021/09/23 00:57:04;;;;;;;2.25;1.40;;;22.00;54.50;;;;;;5134898;27;20054;-58
2021/09/23 00:59:29;;;;;;;2.05;1.50;;;22.00;54.50;;;;;;5133818;27;20131;-58
2021/09/23 01:01:55;;;;;;;2.28;1.65;;;22.00;54.50;;;;;;5134199;27;20039;-58
2021/09/23 01:04:21;;;;;;;1.55;1.25;;;22.00;54.50;;;;;;5134941;27;20055;-58
2021/09/23 01:06:50;;;;;;;4.03;1.60;;;22.00;54.50;;;;;;5133815;27;20023;-57
2021/09/23 01:09:17;;;;;;;2.58;1.70;;;22.00;54.50;;;;;;5134494;27;20068;-58
2021/09/23 01:11:43;;;;;;;2.53;1.30;;;22.00;54.50;;;;;;5133839;27;20027;-57
2021/09/23 01:14:09;;;;;;;2.50;1.45;;;22.00;54.50;;;;;;5134752;27;20955;-58
2021/09/23 01:16:34;;;;;;;1.80;1.40;;;22.00;54.50;;;;;;5133624;27;20110;-57
2021/09/23 01:19:00;;;;;;;2.80;1.48;;;22.00;54.50;;;;;;5134605;27;20102;-58
2021/09/23 01:21:25;;;;;;;3.55;1.98;;;22.00;54.40;;;;;;5133948;27;20110;-58
2021/09/23 01:23:51;;;;;;;1.75;1.30;;;22.00;54.40;;;;;;5133609;27;20470;-58
2021/09/23 01:26:26;;;;;;;3.17;1.70;;;22.00;54.40;;;;;;5134515;27;20100;-58
2021/09/23 01:28:55;;;;;;;2.72;1.40;;;22.00;54.30;;;;;;5132875;27;20031;-57
2021/09/23 01:31:22;;;;;;;2.40;1.98;;;21.90;54.30;;;;;;5134546;27;20019;-58
2021/09/23 01:33:47;;;;;;;2.30;1.50;;;22.00;54.30;;;;;;5133420;27;20027;-58
2021/09/23 01:36:13;;;;;;;5.55;1.85;;;22.00;54.30;;;;;;5134325;27;20026;-58
2021/09/23 01:38:39;;;;;;;3.08;1.40;;;22.00;54.30;;;;;;5133268;27;20091;-57
2021/09/23 01:41:05;;;;;;;2.30;1.45;;;22.00;54.30;;;;;;5134410;27;20106;-58
2021/09/23 01:43:31;;;;;;;3.55;1.60;;;22.00;54.30;;;;;;5134026;27;20031;-58
2021/09/23 01:45:57;;;;;;;1.92;1.42;;;22.00;54.30;;;;;;5132935;27;20440;-58
2021/09/23 01:48:22;;;;;;;2.38;1.52;;;22.00;54.30;;;;;;5133930;27;20106;-58
2021/09/23 01:50:48;;;;;;;2.17;1.63;;;22.00;54.30;;;;;;5132970;27;20023;-58
2021/09/23 01:53:14;;;;;;;2.67;1.55;;;22.00;54.30;;;;;;5114994;27;20377;-58
2021/09/23 01:55:40;;;;;;;3.25;1.73;;;22.00;54.30;;;;;;5132796;27;20030;-57
2021/09/23 01:58:07;;;;;;;2.60;1.50;;;22.00;54.30;;;;;;5133506;27;20506;-58
2021/09/23 02:00:33;;;;;;;1.30;1.20;;;21.90;54.20;;;;;;5132891;27;20058;-58
2021/09/23 02:02:58;;;;;;;1.92;1.25;;;22.00;54.30;;;;;;5132711;27;20115;-58
2021/09/23 02:05:24;;;;;;;2.47;1.60;;;22.00;54.30;;;;;;5133805;27;20460;-58
2021/09/23 02:07:50;;;;;;;3.53;1.33;;;22.00;54.30;;;;;;5132627;27;20023;-57
2021/09/23 02:10:16;;;;;;;2.35;1.63;;;22.00;54.30;;;;;;5133062;27;20375;-58
2021/09/23 02:12:41;;;;;;;2.05;1.58;;;22.00;54.30;;;;;;5132357;27;20484;-57
2021/09/23 02:15:08;;;;;;;1.60;1.50;;;22.00;54.30;;;;;;5133334;27;20063;-58
2021/09/23 02:17:41;;;;;;;2.00;1.30;;;21.90;54.20;;;;;;5133442;27;20110;-58
2021/09/23 02:20:07;;;;;;;2.75;1.52;;;22.00;54.30;;;;;;5133307;27;20030;-58
2021/09/23 02:22:33;;;;;;;3.88;2.30;;;22.00;54.30;;;;;;5132744;27;20042;-58
2021/09/23 02:24:58;;;;;;;3.45;1.60;;;22.00;54.30;;;;;;5131893;27;20042;-58
2021/09/23 02:27:24;;;;;;;2.70;1.83;;;22.00;54.30;;;;;;5133122;27;20023;-58
2021/09/23 02:29:50;;;;;;;1.58;1.40;;;22.00;54.30;;;;;;5132691;27;20066;-58
2021/09/23 02:32:16;;;;;;;2.78;1.40;;;21.90;54.20;;;;;;5132552;27;20035;-58
2021/09/23 02:34:41;;;;;;;2.88;1.40;;;22.00;54.30;;;;;;5132258;27;20038;-57
2021/09/23 02:37:07;;;;;;;4.18;1.50;;;21.90;54.20;;;;;;5133000;27;20379;-58
2021/09/23 02:39:34;;;;;;;3.58;1.40;;;22.00;54.20;;;;;;5132409;27;20035;-58
2021/09/23 02:42:00;;;;;;;2.67;1.63;;;21.90;54.20;;;;;;5132036;27;20039;-58
2021/09/23 02:44:25;;;;;;;2.33;1.52;;;22.00;54.20;;;;;;5132393;27;20403;-58
2021/09/23 02:46:51;;;;;;;2.58;1.63;;;21.90;54.20;;;;;;5131935;27;20019;-57
2021/09/23 02:49:17;;;;;;;1.80;1.40;;;21.90;54.20;;;;;;5132680;27;20038;-58
2021/09/23 02:51:42;;;;;;;1.50;1.20;;;21.90;54.20;;;;;;5132223;27;20020;-59
2021/09/23 02:54:08;;;;;;;2.45;1.20;;;21.90;54.20;;;;;;5132684;27;20027;-58
2021/09/23 02:56:34;;;;;;;2.75;1.50;;;21.90;54.10;;;;;;5114162;27;20031;-58
2021/09/23 02:58:59;;;;;;;2.75;1.83;;;21.90;54.10;;;;;;5131587;27;20027;-58
2021/09/23 03:01:25;;;;;;;2.50;1.40;;;21.90;54.20;;;;;;5132300;27;20062;-58
2021/09/23 03:03:51;;;;;;;2.13;1.50;;;21.90;54.10;;;;;;5131522;27;20030;-58
2021/09/23 03:06:16;;;;;;;1.67;1.08;;;21.90;54.10;;;;;;5132048;27;20083;-58
2021/09/23 03:08:42;;;;;;;1.83;1.10;;;21.90;54.10;;;;;;5131798;27;20029;-57
2021/09/23 03:11:08;;;;;;;1.63;1.30;;;22.00;54.30;;;;;;5132816;27;20019;-58
2021/09/23 03:13:33;;;;;;;1.98;1.42;;;22.00;54.30;;;;;;5132393;27;20039;-58
2021/09/23 03:16:00;;;;;;;1.67;1.10;;;22.00;54.20;;;;;;5132004;27;20034;-57
2021/09/23 03:18:26;;;;;;;3.13;1.60;;;21.90;54.20;;;;;;5131934;27;20046;-58
2021/09/23 03:20:52;;;;;;;2.38;1.38;;;21.90;54.20;;;;;;5131763;27;20027;-58
2021/09/23 03:23:17;;;;;;;2.22;1.23;;;21.90;54.20;;;;;;5132449;28;20042;-58
2021/09/23 03:25:44;;;;;;;1.90;1.63;;;21.90;54.10;;;;;;5131094;28;20027;-58
2021/09/23 03:28:10;;;;;;;4.53;1.75;;;21.90;54.10;;;;;;5132194;28;20420;-58
2021/09/23 03:30:36;;;;;;;1.60;1.45;;;21.90;54.10;;;;;;5132043;28;20063;-58
2021/09/23 03:33:03;;;;;;;2.15;1.25;;;21.90;54.10;;;;;;5131617;28;20061;-58
2021/09/23 03:35:29;;;;;;;2.58;1.77;;;21.90;54.00;;;;;;5114184;28;20027;-58
2021/09/23 03:37:55;;;;;;;3.00;2.10;;;21.90;54.10;;;;;;5131318;28;20753;-58
2021/09/23 03:40:21;;;;;;;2.05;1.50;;;21.90;54.00;;;;;;5132384;28;20015;-58
2021/09/23 03:42:47;;;;;;;2.38;1.30;;;21.90;54.00;;;;;;5131364;28;20031;-58
2021/09/23 03:45:13;;;;;;;2.72;1.20;;;21.90;54.00;;;;;;5113765;28;20031;-58
2021/09/23 03:47:38;;;;;;;1.83;1.38;;;21.90;54.00;;;;;;5131003;28;20023;-58
2021/09/23 03:50:05;;;;;;;1.92;1.30;;;21.90;54.70;;;;;;5131762;27;20098;-57
2021/09/23 03:52:31;;;;;;;1.70;1.20;;;21.90;54.00;;;;;;5136396;27;20036;-58
2021/09/23 03:54:57;;;;;;;3.05;1.75;;;21.90;54.00;;;;;;5135116;27;20019;-57
2021/09/23 03:57:22;;;;;;;1.92;1.17;;;21.90;54.00;;;;;;5136124;27;20135;-58
2021/09/23 03:59:48;;;;;;;1.73;1.45;;;21.90;54.10;;;;;;5134860;27;20425;-57
2021/09/23 04:02:14;;;;;;;2.72;1.40;;;21.90;54.10;;;;;;5135559;27;20035;-58
2021/09/23 04:04:40;;;;;;;1.85;1.58;;;21.90;54.10;;;;;;5135258;27;20071;-57
2021/09/23 04:07:06;;;;;;;1.90;1.17;;;21.90;54.00;;;;;;5136373;27;20110;-58
2021/09/23 04:09:32;;;;;;;2.05;1.40;;;21.90;54.00;;;;;;5135996;27;20503;-58
2021/09/23 04:11:57;;;;;;;1.58;1.42;;;21.90;54.10;;;;;;5099677;27;20676;-58
2021/09/23 04:14:23;;;;;;;4.00;1.73;;;21.90;54.10;;;;;;5135593;27;20034;-58
2021/09/23 04:16:50;;;;;;;1.92;1.38;;;21.90;54.10;;;;;;5135000;27;20031;-58
2021/09/23 04:19:17;;;;;;;2.63;1.50;;;21.90;54.10;;;;;;5135194;27;20035;-58
2021/09/23 04:21:42;;;;;;;1.88;1.17;;;21.90;54.00;;;;;;5135007;27;20063;-57
2021/09/23 04:24:08;;;;;;;2.10;1.60;;;21.90;54.10;;;;;;5135686;27;20444;-58
2021/09/23 04:26:34;;;;;;;2.20;1.38;;;21.90;54.10;;;;;;5135868;27;20486;-58
2021/09/23 04:29:00;;;;;;;2.92;1.58;;;21.80;54.00;;;;;;5134816;27;20102;-57
2021/09/23 04:31:26;;;;;;;1.90;1.60;;;21.90;54.10;;;;;;5135401;27;20092;-58
2021/09/23 04:33:51;;;;;;;1.83;1.30;;;21.90;54.10;;;;;;5134568;27;20027;-57
2021/09/23 04:36:17;;;;;;;2.55;1.52;;;21.90;54.10;;;;;;5135479;27;20031;-58
2021/09/23 04:38:43;;;;;;;3.20;1.60;;;21.90;54.00;;;;;;5134630;27;20027;-58
2021/09/23 04:41:11;;;;;;;3.08;2.10;;;21.90;54.00;;;;;;5134786;27;20027;-58
2021/09/23 04:43:38;;;;;;;2.97;1.30;;;21.80;54.00;;;;;;5134755;27;20035;-48
2021/09/23 04:46:03;;;;;;;1.90;1.45;;;21.90;54.20;;;;;;5134205;27;20172;-53
2021/09/23 04:48:29;;;;;;;4.30;1.60;;;21.90;54.00;;;;;;5134867;27;20147;-52
2021/09/23 04:50:55;;;;;;;3.03;1.77;;;22.00;54.50;;;;;;5133642;27;20491;-56
2021/09/23 04:53:20;;;;;;;5.35;2.85;;;22.00;53.60;;;;;;5128736;27;20148;-56
2021/09/23 04:55:46;;;;;;;4.93;2.70;;;22.00;48.70;;;;;;5126117;27;20023;-56
2021/09/23 04:58:12;;;;;;;3.72;2.53;;;21.80;47.70;;;;;;5134291;27;20148;-57
2021/09/23 05:00:37;;;;;;;3.88;2.30;;;21.80;47.20;;;;;;5134154;27;20055;-57
2021/09/23 05:03:03;;;;;;;4.88;2.60;;;21.70;46.90;;;;;;5132728;27;20035;-56
2021/09/23 05:05:29;;;;;;;3.17;2.60;;;21.70;46.90;;;;;;5133974;27;20195;-57
2021/09/23 05:07:55;;;;;;;5.43;2.95;;;21.60;47.10;;;;;;5133597;27;20023;-57
2021/09/23 05:10:21;;;;;;;6.85;3.20;;;21.60;47.20;;;;;;5134167;27;20069;-57
2021/09/23 05:12:47;;;;;;;5.07;2.60;;;21.50;47.20;;;;;;5133524;27;20108;-57
2021/09/23 05:15:13;;;;;;;6.85;2.60;;;21.50;47.10;;;;;;5133485;27;20394;-57
2021/09/23 05:17:40;;;;;;;4.82;3.28;;;21.40;46.80;;;;;;5134075;27;20051;-57
2021/09/23 05:20:07;;;;;;;4.25;3.15;;;21.40;46.90;;;;;;5133932;27;20028;-57
2021/09/23 05:22:33;;;;;;;5.97;3.20;;;21.40;46.70;;;;;;5133829;27;20125;-57
2021/09/23 05:24:59;;;;;;;7.32;3.70;;;21.40;47.00;;;;;;5133647;27;20106;-57
2021/09/23 05:27:25;;;;;;;5.32;3.42;;;21.40;47.10;;;;;;5134143;27;20064;-57
2021/09/23 05:29:50;;;;;;;6.28;2.88;;;21.40;47.30;;;;;;5133052;27;20031;-56
2021/09/23 05:32:16;;;;;;;6.18;3.17;;;21.40;47.40;;;;;;5132175;27;20027;-57
2021/09/23 05:34:42;;;;;;;4.65;3.03;;;21.30;47.60;;;;;;5125815;27;20114;-59
2021/09/23 05:37:08;;;;;;;5.05;2.50;;;21.30;48.10;;;;;;5133692;27;20027;-56
2021/09/23 05:39:34;;;;;;;4.60;1.90;;;21.40;48.20;;;;;;5133903;27;20035;-57
2021/09/23 05:42:02;;;;;;;5.05;2.30;;;21.60;48.70;;;;;;5132601;27;20041;-52
2021/09/23 05:44:28;;;;;;;8.23;2.10;;;21.70;49.00;;;;;;5128436;27;20062;-58
2021/09/23 05:46:55;;;;;;;7.75;2.10;;;21.70;51.40;;;;;;5128386;27;20508;-56
2021/09/23 05:49:21;;;;;;;5.80;2.00;;;21.80;51.50;;;;;;5120593;27;20027;-57
2021/09/23 05:51:48;;;;;;;9.13;2.30;;;21.80;51.30;;;;;;5128177;27;20022;-55
2021/09/23 05:54:14;;;;;;;12.88;1.90;;;21.90;52.30;;;;;;5130387;27;20067;-54
2021/09/23 05:56:41;;;;;;;5.68;2.30;;;21.90;51.00;;;;;;5113145;27;20465;-53
2021/09/23 05:59:07;;;;;;;3.97;2.05;;;21.90;52.30;;;;;;5132767;27;20026;-58
2021/09/23 06:01:33;;;;;;;11.13;2.28;;;21.80;53.40;;;;;;5133334;27;20098;-58
2021/09/23 06:03:59;;;;;;;7.13;2.03;;;21.90;53.00;;;;;;5132362;27;20058;-58
2021/09/23 06:06:25;;;;;;;7.35;2.47;;;21.90;53.30;;;;;;5133371;27;20037;-58
2021/09/23 06:08:51;;;;;;;5.38;1.77;;;21.80;53.50;;;;;;5132619;27;20058;-58
2021/09/23 06:11:16;;;;;;;6.05;2.00;;;21.80;53.30;;;;;;5132994;27;20431;-58
2021/09/23 06:13:43;;;;;;;7.38;2.13;;;21.80;53.50;;;;;;5132763;27;20031;-58
2021/09/23 06:16:10;;;;;;;7.15;2.40;;;21.80;53.50;;;;;;5132838;27;20163;-58
2021/09/23 06:18:37;;;;;;;4.30;1.90;;;21.80;53.60;;;;;;5132278;27;20054;-58
2021/09/23 06:21:05;;;;;;;6.53;2.10;;;21.80;53.60;;;;;;5132143;27;20585;-58
2021/09/23 06:23:30;;;;;;;4.15;1.83;;;21.80;53.60;;;;;;5133151;27;20165;-58
2021/09/23 06:25:56;;;;;;;2.78;1.77;;;21.80;53.70;;;;;;5132114;27;20109;-58
2021/09/23 06:28:22;;;;;;;3.97;1.77;;;21.80;53.90;;;;;;5133250;27;20019;-58
2021/09/23 06:30:47;;;;;;;4.43;1.90;;;21.80;53.80;;;;;;5132014;27;20027;-58
2021/09/23 06:33:13;;;;;;;5.35;1.90;;;21.80;53.80;;;;;;5133199;27;20462;-58
2021/09/23 06:35:39;;;;;;;5.05;1.67;;;21.80;53.90;;;;;;5132826;27;20087;-58
2021/09/23 06:38:05;;;;;;;4.50;2.08;;;21.80;54.10;;;;;;5131976;27;20035;-58
2021/09/23 06:40:30;;;;;;;6.63;1.67;;;21.80;54.20;;;;;;5132472;27;20031;-58
2021/09/23 06:42:56;;;;;;;7.72;3.20;;;21.80;54.30;;;;;;5132234;27;20042;-58
2021/09/23 06:45:22;;;;;;;6.18;1.83;;;21.80;54.20;;;;;;5131638;27;20743;-58
2021/09/23 06:47:47;;;;;;;4.82;2.00;;;21.90;54.50;;;;;;5129608;27;20115;-58
2021/09/23 06:50:14;;;;;;;6.07;2.10;;;21.90;54.60;;;;;;5113064;27;20030;-58
2021/09/23 06:52:40;;;;;;;5.22;1.80;;;21.90;54.70;;;;;;5123973;27;20459;-58
2021/09/23 06:55:07;;;;;;;5.18;1.67;;;21.90;54.90;;;;;;5131793;27;20026;-57
2021/09/23 06:57:32;;;;;;;4.65;1.73;;;21.80;54.90;;;;;;5132243;27;20030;-58
2021/09/23 06:59:58;;;;;;;3.33;1.63;;;21.80;55.00;;;;;;5131663;27;20043;-58
2021/09/23 07:02:24;;;;;;;2.47;1.25;;;21.80;55.00;;;;;;5131344;27;20127;-58
2021/09/23 07:04:49;;;;;;;5.63;2.47;;;21.80;55.10;;;;;;5112600;27;20038;-58
2021/09/23 07:07:15;;;;;;;4.57;2.05;;;21.80;55.10;;;;;;5132641;27;20027;-58
2021/09/23 07:09:41;;;;;;;5.47;1.63;;;21.80;55.10;;;;;;5131725;27;20019;-58
2021/09/23 07:12:06;;;;;;;8.77;2.10;;;21.80;55.20;;;;;;5128322;27;20102;-58
2021/09/23 07:14:32;;;;;;;2.60;1.73;;;21.80;55.20;;;;;;5132092;27;20033;-58
2021/09/23 07:16:58;;;;;;;3.45;1.60;;;21.80;55.30;;;;;;5131180;27;20149;-58
2021/09/23 07:19:23;;;;;;;2.67;1.60;;;21.80;55.30;;;;;;5132242;27;20023;-58
2021/09/23 07:21:49;;;;;;;3.63;1.77;;;21.80;55.40;;;;;;5131100;27;20102;-58
2021/09/23 07:24:14;;;;;;;3.40;1.63;;;21.80;55.40;;;;;;5132418;27;20035;-58
2021/09/23 07:26:40;;;;;;;3.97;1.77;;;21.90;55.50;;;;;;5130935;27;20031;-58
2021/09/23 07:29:09;;;;;;;3.08;1.50;;;21.90;55.50;;;;;;5131298;28;20107;-58
2021/09/23 07:31:35;;;;;;;4.15;1.85;;;21.80;55.60;;;;;;5131894;28;20038;-58
2021/09/23 07:34:00;;;;;;;5.05;2.35;;;21.90;55.60;;;;;;5131153;28;20023;-58
2021/09/23 07:36:26;;;;;;;2.72;1.38;;;21.90;55.60;;;;;;5131686;28;20032;-58
2021/09/23 07:38:52;;;;;;;3.50;1.75;;;21.90;55.70;;;;;;5130775;28;20038;-58
2021/09/23 07:41:18;;;;;;;4.38;1.70;;;21.80;55.70;;;;;;5131935;28;20063;-58
2021/09/23 07:43:44;;;;;;;2.75;1.58;;;21.80;55.70;;;;;;5131870;28;20420;-58
2021/09/23 07:46:09;;;;;;;3.25;1.77;;;21.80;55.80;;;;;;5131000;28;20039;-58
2021/09/23 07:48:35;;;;;;;3.25;1.50;;;21.80;55.70;;;;;;5131677;28;20033;-58
2021/09/23 07:51:00;;;;;;;5.30;1.80;;;21.80;55.80;;;;;;5130635;28;20031;-58
2021/09/23 07:53:26;;;;;;;3.20;1.55;;;21.80;55.80;;;;;;5113483;28;20062;-58
2021/09/23 07:55:52;;;;;;;2.33;1.65;;;21.80;55.80;;;;;;5130522;28;20028;-58
2021/09/23 07:58:19;;;;;;;3.30;1.88;;;21.80;55.80;;;;;;5131578;28;20038;-58
2021/09/23 08:00:44;;;;;;;3.40;1.70;;;21.80;55.70;;;;;;5131234;28;20046;-57
2021/09/23 08:03:10;;;;;;;2.85;1.70;;;21.80;55.70;;;;;;5131252;28;20035;-58
2021/09/23 08:05:36;;;;;;;3.47;1.70;;;21.80;55.70;;;;;;5131393;28;20537;-58
2021/09/23 08:08:02;;;;;;;2.13;1.73;;;21.80;55.70;;;;;;5130573;28;20015;-58
2021/09/23 08:10:28;;;;;;;3.00;1.98;;;21.80;55.70;;;;;;5131418;28;20027;-58
2021/09/23 08:12:54;;;;;;;2.88;1.85;;;21.80;55.70;;;;;;5130999;28;20087;-58
2021/09/23 08:15:19;;;;;;;2.10;1.58;;;21.80;55.70;;;;;;5131536;28;20486;-58
2021/09/23 08:17:45;;;;;;;3.15;1.80;;;21.80;55.70;;;;;;5131356;28;20028;-58
2021/09/23 08:20:11;;;;;;;3.65;1.77;;;21.80;55.60;;;;;;5130665;28;20499;-58
2021/09/23 08:22:37;;;;;;;3.65;1.77;;;21.80;55.60;;;;;;5130655;28;20035;-58
2021/09/23 08:25:04;;;;;;;4.78;2.28;;;21.80;55.60;;;;;;5130140;28;20028;-58
2021/09/23 08:27:30;;;;;;;2.83;1.80;;;21.80;55.60;;;;;;5129489;28;20106;-58
2021/09/23 08:29:56;;;;;;;3.30;1.85;;;21.80;55.60;;;;;;5112311;28;20118;-58
2021/09/23 08:32:21;;;;;;;2.85;1.80;;;21.80;55.60;;;;;;5131549;28;20035;-57
2021/09/23 08:34:48;;;;;;;3.25;1.73;;;21.80;55.60;;;;;;5131075;28;20027;-58
2021/09/23 08:37:15;;;;;;;2.33;1.75;;;21.80;55.50;;;;;;5131486;27;20102;-58
2021/09/23 08:39:40;;;;;;;2.60;1.65;;;21.80;55.50;;;;;;5135234;27;20035;-58
2021/09/23 08:42:06;;;;;;;2.83;1.88;;;21.80;55.60;;;;;;5133331;27;20796;-58
2021/09/23 08:44:32;;;;;;;2.72;1.70;;;21.80;55.50;;;;;;5134614;27;20027;-58
2021/09/23 08:46:58;;;;;;;2.35;1.67;;;21.80;55.50;;;;;;5115411;27;20386;-58
2021/09/23 08:49:24;;;;;;;2.90;1.55;;;21.80;55.50;;;;;;5134952;27;20130;-58
2021/09/23 08:51:50;;;;;;;3.13;2.28;;;21.80;55.40;;;;;;5135040;27;20027;-58
2021/09/23 08:54:17;;;;;;;2.88;1.60;;;21.80;55.40;;;;;;5115819;27;20496;-58
2021/09/23 08:56:46;;;;;;;3.75;1.77;;;21.80;55.40;;;;;;5134981;27;20073;-58
2021/09/23 08:59:12;;;;;;;2.80;1.75;;;21.80;55.40;;;;;;5133356;27;20055;-58
2021/09/23 09:01:47;;;;;;;2.17;1.60;;;21.80;55.40;;;;;;5126363;27;20074;-58
2021/09/23 09:04:13;;;;;;;2.50;1.63;;;21.80;55.40;;;;;;5133740;27;20031;-58
2021/09/23 09:06:53;;;;;;;4.00;1.92;;;21.80;55.40;;;;;;5134674;27;20038;-58
2021/09/23 09:09:19;;;;;;;1.73;1.52;;;21.80;55.40;;;;;;5133816;27;20404;-58
2021/09/23 09:11:46;;;;;;;5.55;2.15;;;21.80;55.40;;;;;;5134718;27;20407;-58
2021/09/23 09:14:26;;;;;;;3.33;1.70;;;21.80;55.40;;;;;;5133266;27;20026;-58
2021/09/23 09:17:05;;;;;;;3.55;2.03;;;21.80;55.30;;;;;;5124093;27;20076;-58
2021/09/23 09:19:50;;;;;;;4.82;2.05;;;21.80;55.40;;;;;;5126801;27;20062;-58
2021/09/23 09:22:22;;;;;;;2.85;1.70;;;21.80;55.30;;;;;;5134195;27;20039;-58
2021/09/23 09:24:55;;;;;;;2.50;1.60;;;21.80;55.30;;;;;;5134514;27;20114;-58
2021/09/23 09:27:33;;;;;;;2.67;1.83;;;21.80;55.30;;;;;;5132058;27;20261;-58
2021/09/23 09:30:21;;;;;;;2.08;1.60;;;21.80;55.30;;;;;;5130529;27;20026;-57
2021/09/23 09:32:50;;;;;;;5.32;2.13;;;21.80;55.30;;;;;;5127002;27;20122;-58
2021/09/23 09:35:30;;;;;;;3.65;2.25;;;21.80;55.30;;;;;;5133815;27;20027;-57
2021/09/23 09:37:59;;;;;;;3.70;1.80;;;21.80;55.30;;;;;;5133193;27;20467;-58
2021/09/23 09:40:27;;;;;;;3.05;1.88;;;21.80;55.30;;;;;;5133529;27;20058;-58
2021/09/23 09:42:55;;;;;;;2.20;1.92;;;21.80;55.30;;;;;;5131385;27;20023;-58
2021/09/23 09:45:23;;;;;;;4.00;1.85;;;21.80;55.30;;;;;;5132965;27;20375;-58
2021/09/23 09:47:52;;;;;;;4.65;1.75;;;21.80;55.30;;;;;;5133621;27;20076;-58
2021/09/23 09:50:22;;;;;;;2.38;1.83;;;21.80;55.30;;;;;;5133801;27;20353;-58
2021/09/23 09:52:57;;;;;;;2.55;1.60;;;21.80;55.30;;;;;;5133494;27;20023;-58
2021/09/23 09:55:24;;;;;;;3.20;1.73;;;21.90;55.30;;;;;;5133125;27;20027;-58
2021/09/23 09:57:51;;;;;;;2.63;1.83;;;21.80;55.30;;;;;;5125218;27;20391;-58
2021/09/23 10:00:17;;;;;;;3.38;1.75;;;21.80;55.20;;;;;;5133399;27;20042;-58
2021/09/23 10:02:47;;;;;;;2.28;1.73;;;21.80;55.30;;;;;;5133388;27;20065;-58
2021/09/23 10:05:15;;;;;;;2.78;1.98;;;21.80;55.30;;;;;;5132139;27;20567;-58
2021/09/23 10:07:46;;;;;;;3.78;1.60;;;21.80;55.30;;;;;;5133405;27;20104;-58
2021/09/23 10:10:13;;;;;;;2.88;1.50;;;21.90;55.30;;;;;;5132814;27;20657;-58
2021/09/23 10:12:41;;;;;;;3.97;1.80;;;21.90;55.30;;;;;;5128962;27;20483;-58
2021/09/23 10:15:14;;;;;;;3.05;1.58;;;21.90;55.30;;;;;;5132274;27;20060;-58
2021/09/23 10:17:45;;;;;;;2.90;1.80;;;21.80;55.20;;;;;;5131274;27;20371;-57
2021/09/23 10:20:12;;;;;;;2.88;1.67;;;21.90;55.30;;;;;;5132861;27;20031;-57
2021/09/23 10:22:39;;;;;;;3.42;1.88;;;21.90;55.20;;;;;;5133017;27;20479;-58
2021/09/23 10:25:08;;;;;;;2.63;1.58;;;21.90;55.20;;;;;;5132523;27;20494;-58
2021/09/23 10:30:20;;;;;;;2.97;1.70;;;21.90;55.30;;;;;;5126839;27;20054;-58
2021/09/23 10:32:46;;;;;;;2.47;1.48;;;21.90;56.00;;;;;;5132918;27;20042;-58
2021/09/23 10:35:14;;;;;;;3.83;2.10;;;21.90;55.40;;;;;;5132677;27;20061;-57
2021/09/23 10:37:41;;;;;;;6.65;1.80;;;21.90;55.50;;;;;;5133097;27;20046;-58
2021/09/23 10:40:11;;;;;;;2.92;1.58;;;22.00;55.50;;;;;;5131979;27;20043;-57
2021/09/23 10:42:38;;;;;;;3.55;1.50;;;22.00;55.50;;;;;;5132358;27;20163;-58
2021/09/23 10:45:05;;;;;;;1.63;1.38;;;21.90;55.50;;;;;;5113212;27;20066;-57
2021/09/23 10:47:34;;;;;;;2.03;1.35;;;22.00;55.60;;;;;;5132614;27;20031;-58
2021/09/23 10:50:01;;;;;;;2.80;1.75;;;21.90;55.60;;;;;;5132115;27;20027;-58
2021/09/23 10:52:30;;;;;;;5.22;1.60;;;22.00;55.70;;;;;;5132538;27;20102;-57
2021/09/23 10:54:58;;;;;;;2.85;1.65;;;22.00;55.70;;;;;;5132270;27;20019;-57
2021/09/23 10:57:28;;;;;;;2.47;1.60;;;21.90;55.70;;;;;;5132740;27;20087;-58
2021/09/23 10:59:55;;;;;;;2.72;1.58;;;21.90;55.70;;;;;;5131523;27;20521;-57
2021/09/23 11:02:27;;;;;;;3.25;1.55;;;21.90;55.70;;;;;;5132663;27;20482;-58
2021/09/23 11:04:55;;;;;;;3.53;1.65;;;21.90;55.70;;;;;;5132727;27;20042;-58
2021/09/23 11:07:22;;;;;;;1.77;1.50;;;22.00;55.70;;;;;;5131651;27;20110;-58
2021/09/23 11:10:21;;;;;;;2.22;1.35;;;22.00;55.80;;;;;;5132255;27;20049;-58
2021/09/23 11:12:49;;;;;;;2.88;1.70;;;21.90;55.70;;;;;;5127169;27;20027;-58
2021/09/23 11:15:17;;;;;;;2.15;1.60;;;22.00;55.80;;;;;;5131646;27;20030;-58
2021/09/23 11:17:44;;;;;;;2.97;1.80;;;21.90;55.70;;;;;;5132187;27;20023;-58
2021/09/23 11:20:21;;;;;;;2.10;1.42;;;22.00;55.70;;;;;;5131669;27;20072;-58
2021/09/23 11:22:59;;;;;;;2.95;1.30;;;22.00;55.80;;;;;;5132292;27;20035;-58
2021/09/23 11:25:27;;;;;;;2.00;1.50;;;22.00;55.80;;;;;;5113772;28;20487;-58
2021/09/23 11:27:55;;;;;;;1.70;1.38;;;22.00;56.50;;;;;;5131923;28;20027;-58
2021/09/23 11:30:23;;;;;;;2.38;1.60;;;22.00;55.90;;;;;;5131640;28;20028;-58
2021/09/23 11:32:49;;;;;;;2.05;1.40;;;21.90;55.80;;;;;;5132472;28;20035;-58
2021/09/23 11:35:16;;;;;;;2.85;1.42;;;22.00;55.80;;;;;;5131731;28;20316;-58
2021/09/23 11:37:42;;;;;;;1.70;1.15;;;22.00;55.80;;;;;;5132504;28;20467;-57
2021/09/23 11:40:09;;;;;;;2.53;1.58;;;22.00;55.80;;;;;;5131493;28;20023;-58
2021/09/23 11:42:38;;;;;;;3.20;1.52;;;22.00;55.70;;;;;;5113031;28;20502;-57
2021/09/23 11:45:17;;;;;;;3.58;1.15;;;22.00;55.70;;;;;;5128719;28;20027;-57
2021/09/23 11:47:51;;;;;;;2.53;1.83;;;22.00;55.70;;;;;;5124915;28;20152;-57
2021/09/23 11:50:37;;;;;;;4.10;1.50;;;22.00;56.00;;;;;;5130911;28;20071;-58
2021/09/23 11:53:14;;;;;;;2.97;1.60;;;22.00;56.50;;;;;;5130282;28;20475;-58
2021/09/23 11:55:42;;;;;;;2.50;1.60;;;22.00;56.70;;;;;;5132133;28;20051;-57
2021/09/23 11:58:10;;;;;;;2.53;1.50;;;22.00;56.40;;;;;;5131068;28;20034;-58
2021/09/23 12:00:40;;;;;;;6.13;1.60;;;22.00;56.60;;;;;;5131714;28;20031;-58
2021/09/23 12:03:06;;;;;;;2.38;1.50;;;22.00;56.40;;;;;;5131263;28;20043;-58
2021/09/23 12:05:32;;;;;;;2.60;1.90;;;22.00;56.80;;;;;;5131482;28;20531;-57
2021/09/23 12:08:10;;;;;;;2.08;1.38;;;22.00;56.70;;;;;;5131218;28;20107;-57
2021/09/23 12:11:06;;;;;;;2.08;1.30;;;22.00;56.60;;;;;;5131272;28;20467;-57
2021/09/23 12:13:42;;;;;;;2.25;1.30;;;22.00;56.60;;;;;;5133283;27;20039;-57
2021/09/23 12:16:11;;;;;;;1.48;1.20;;;22.00;56.40;;;;;;5133828;27;20531;-57
2021/09/23 12:18:37;;;;;;;2.65;1.50;;;22.00;56.50;;;;;;5121948;27;20105;-57
2021/09/23 12:21:08;;;;;;;1.75;1.35;;;22.00;56.30;;;;;;5134281;27;20031;-57
2021/09/23 12:23:36;;;;;;;1.85;1.48;;;22.00;56.20;;;;;;5135971;27;20080;-58
2021/09/23 12:26:05;;;;;;;2.50;1.40;;;22.00;56.40;;;;;;5134709;27;20039;-58
2021/09/23 12:28:32;;;;;;;1.60;1.05;;;22.00;56.20;;;;;;5135445;27;20071;-58
2021/09/23 12:31:03;;;;;;;4.43;1.35;;;22.00;56.20;;;;;;5134389;27;20110;-56
2021/09/23 12:33:28;;;;;;;2.85;1.48;;;22.00;56.20;;;;;;5135205;27;20035;-56
2021/09/23 12:36:16;;;;;;;7.90;1.30;;;22.10;56.20;;;;;;5135451;27;20449;-56
2021/09/23 12:38:42;;;;;;;3.03;1.40;;;22.10;56.30;;;;;;5130072;27;20049;-56
2021/09/23 12:41:23;;;;;;;3.47;2.08;;;22.10;56.30;;;;;;5134626;27;20035;-56
2021/09/23 12:43:50;;;;;;;4.43;1.55;;;22.10;56.10;;;;;;5135130;27;20035;-56
2021/09/23 12:46:18;;;;;;;2.20;1.23;;;22.10;56.10;;;;;;5115710;27;20035;-57
2021/09/23 12:48:45;;;;;;;3.13;2.33;;;22.10;56.00;;;;;;5135308;27;20076;-56
2021/09/23 12:51:12;;;;;;;2.67;2.13;;;22.10;55.90;;;;;;5134191;27;20027;-56
2021/09/23 12:53:38;;;;;;;1.98;1.40;;;22.10;55.80;;;;;;5135195;27;20039;-56